createdAt,value
2022-12-18T00:01:26.724Z,77.98
2022-12-18T00:04:21.059Z,78.09
2022-12-18T00:07:06.549Z,78.04
2022-12-18T00:09:52.060Z,77.49
2022-12-18T00:12:37.637Z,77.57
2022-12-18T00:15:23.019Z,77.62
2022-12-18T00:18:09.058Z,77.30
2022-12-18T00:20:54.363Z,77.40
2022-12-18T00:23:42.286Z,77.05
2022-12-18T00:26:30.419Z,78.00
2022-12-18T00:29:19.684Z,77.83
2022-12-18T00:32:05.352Z,77.23
2022-12-18T00:34:50.690Z,77.16
2022-12-18T00:37:36.260Z,77.54
2022-12-18T00:40:21.780Z,77.62
2022-12-18T00:43:07.286Z,77.35
2022-12-18T00:45:52.737Z,77.58
2022-12-18T00:48:37.967Z,77.85
2022-12-18T00:51:23.582Z,77.22
2022-12-18T00:54:09.541Z,77.82
2022-12-18T00:56:56.164Z,78.27
2022-12-18T00:59:41.589Z,77.83
2022-12-18T01:02:27.067Z,78.33
2022-12-18T01:05:14.557Z,78.94
2022-12-18T01:08:00.463Z,78.80
2022-12-18T01:10:46.239Z,77.92
2022-12-18T01:13:31.561Z,78.06
2022-12-18T01:16:18.934Z,78.50
2022-12-18T01:19:04.546Z,78.80
2022-12-18T01:21:49.915Z,79.05
2022-12-18T01:24:35.499Z,78.51
2022-12-18T01:27:20.693Z,77.99
2022-12-18T01:30:06.959Z,78.02
2022-12-18T01:32:52.639Z,77.63
2022-12-18T01:35:43.486Z,78.43
2022-12-18T01:38:29.918Z,78.05
2022-12-18T01:41:17.606Z,77.48
2022-12-18T01:44:23.354Z,77.51
2022-12-18T01:47:08.775Z,77.04
2022-12-18T01:49:55.295Z,77.75
2022-12-18T01:52:43.807Z,76.89
2022-12-18T01:55:32.139Z,77.04
2022-12-18T01:58:18.179Z,77.55
2022-12-18T02:01:04.197Z,76.76
2022-12-18T02:03:52.752Z,76.82
2022-12-18T02:06:42.377Z,77.10
2022-12-18T02:10:02.004Z,77.42
2022-12-18T02:13:21.971Z,78.04
2022-12-18T02:16:31.757Z,77.34
2022-12-18T02:19:48.977Z,77.60
2022-12-18T02:22:45.990Z,78.11
2022-12-18T02:25:45.019Z,77.80
2022-12-18T02:28:36.064Z,78.37
2022-12-18T02:31:28.782Z,77.94
2022-12-18T02:34:15.258Z,78.11
2022-12-18T02:37:05.149Z,77.53
2022-12-18T02:39:56.339Z,77.17
2022-12-18T02:42:42.567Z,77.64
2022-12-18T02:45:29.960Z,77.74
2022-12-18T02:48:15.432Z,77.75
2022-12-18T02:51:18.220Z,78.04
2022-12-18T02:54:19.672Z,78.17
2022-12-18T02:57:38.642Z,77.48
2022-12-18T03:00:39.744Z,77.80
2022-12-18T03:03:31.204Z,77.91
2022-12-18T03:06:38.219Z,78.53
2022-12-18T03:09:32.907Z,78.25
2022-12-18T03:12:54.578Z,78.14
2022-12-18T03:15:48.060Z,78.08
2022-12-18T03:18:44.423Z,78.55
2022-12-18T03:21:36.908Z,78.65
2022-12-18T03:24:25.486Z,78.78
2022-12-18T03:27:15.798Z,78.83
2022-12-18T03:30:08.499Z,78.82
2022-12-18T03:33:02.062Z,78.50
2022-12-18T03:35:49.044Z,79.24
2022-12-18T03:38:37.005Z,79.22
2022-12-18T03:41:46.083Z,79.79
2022-12-18T03:45:06.395Z,79.67
2022-12-18T03:48:07.592Z,79.49
2022-12-18T03:50:57.873Z,79.56
2022-12-18T03:53:59.417Z,79.42
2022-12-18T03:56:57.698Z,79.68
2022-12-18T03:59:46.687Z,78.91
2022-12-18T04:02:37.810Z,79.93
2022-12-18T04:05:25.298Z,79.43
2022-12-18T04:08:11.479Z,79.98
2022-12-18T04:11:03.147Z,79.82
2022-12-18T04:13:49.254Z,80.32
2022-12-18T04:16:42.141Z,81.08
2022-12-18T04:19:31.649Z,80.38
2022-12-18T04:22:18.446Z,80.90
2022-12-18T04:25:07.824Z,80.79
2022-12-18T04:27:57.294Z,81.07
2022-12-18T04:30:42.851Z,81.08
2022-12-18T04:33:28.584Z,81.46
2022-12-18T04:36:13.915Z,80.70
2022-12-18T04:39:00.399Z,80.80
2022-12-18T04:41:45.838Z,80.55
2022-12-18T04:44:32.234Z,80.76
2022-12-18T04:47:17.516Z,80.73
2022-12-18T04:50:02.734Z,81.03
2022-12-18T04:52:47.940Z,80.72
2022-12-18T04:55:33.363Z,79.46
2022-12-18T04:58:18.736Z,79.73
2022-12-18T05:01:04.604Z,79.55
2022-12-18T05:03:52.414Z,79.21
2022-12-18T05:06:37.690Z,79.32
2022-12-18T05:09:23.951Z,78.31
2022-12-18T05:12:09.582Z,78.22
2022-12-18T05:14:54.789Z,77.99
2022-12-18T05:17:40.260Z,78.65
2022-12-18T05:20:26.636Z,78.50
2022-12-18T05:23:13.157Z,78.67
2022-12-18T05:26:01.205Z,79.65
2022-12-18T05:28:47.358Z,79.74
2022-12-18T05:31:38.923Z,79.28
2022-12-18T05:34:25.347Z,79.37
2022-12-18T05:37:10.897Z,79.79
2022-12-18T05:39:56.173Z,79.20
2022-12-18T05:42:41.490Z,79.26
2022-12-18T05:45:26.927Z,78.87
2022-12-18T05:48:13.503Z,79.25
2022-12-18T05:51:06.054Z,79.50
2022-12-18T05:53:51.359Z,79.08
2022-12-18T05:56:36.852Z,78.42
2022-12-18T05:59:22.556Z,79.04
2022-12-18T06:02:08.195Z,78.72
2022-12-18T06:04:53.901Z,78.38
2022-12-18T06:07:39.410Z,79.65
2022-12-18T06:10:24.717Z,79.28
2022-12-18T06:13:10.466Z,79.36
2022-12-18T06:15:56.283Z,79.21
2022-12-18T06:18:41.994Z,78.86
2022-12-18T06:21:28.221Z,78.90
2022-12-18T06:24:13.834Z,79.83
2022-12-18T06:26:59.273Z,80.28
2022-12-18T06:29:45.398Z,79.69
2022-12-18T06:32:31.570Z,79.51
2022-12-18T06:35:17.531Z,79.19
2022-12-18T06:38:04.664Z,79.56
2022-12-18T06:40:50.381Z,79.68
2022-12-18T06:43:36.501Z,79.93
2022-12-18T06:46:22.535Z,79.64
2022-12-18T06:49:10.137Z,79.30
2022-12-18T06:51:55.458Z,77.79
2022-12-18T06:54:40.789Z,77.62
2022-12-18T06:57:27.667Z,77.93
2022-12-18T07:00:14.569Z,77.72
2022-12-18T07:03:00.182Z,78.27
2022-12-18T07:05:45.694Z,78.42
2022-12-18T07:08:32.299Z,78.17
2022-12-18T07:11:19.219Z,78.94
2022-12-18T07:14:05.100Z,77.91
2022-12-18T07:16:50.577Z,78.67
2022-12-18T07:19:35.913Z,78.52
2022-12-18T07:22:21.413Z,78.84
2022-12-18T07:25:07.641Z,79.44
2022-12-18T07:27:53.693Z,79.33
2022-12-18T07:30:39.505Z,79.46
2022-12-18T07:33:24.942Z,78.84
2022-12-18T07:36:11.579Z,79.14
2022-12-18T07:38:57.203Z,79.71
2022-12-18T07:42:02.998Z,80.02
2022-12-18T07:44:48.742Z,79.47
2022-12-18T07:47:37.528Z,78.98
2022-12-18T07:50:23.215Z,79.18
2022-12-18T07:53:08.544Z,79.60
2022-12-18T07:56:26.106Z,78.92
2022-12-18T07:59:07.249Z,79.54
2022-12-18T08:01:53.185Z,79.68
2022-12-18T08:04:39.008Z,79.56
2022-12-18T08:07:27.196Z,79.46
2022-12-18T08:10:14.840Z,79.32
2022-12-18T08:13:04.649Z,79.59
2022-12-18T08:16:05.705Z,80.20
2022-12-18T08:18:53.536Z,79.82
2022-12-18T08:21:38.982Z,80.27
2022-12-18T08:24:31.092Z,80.16
2022-12-18T08:27:32.486Z,80.07
2022-12-18T08:30:20.169Z,80.09
2022-12-18T08:33:06.627Z,79.78
2022-12-18T08:35:52.472Z,79.59
2022-12-18T08:38:38.448Z,79.84
2022-12-18T08:41:24.703Z,79.32
2022-12-18T08:44:29.570Z,79.58
2022-12-18T08:47:15.938Z,79.38
2022-12-18T08:50:01.844Z,79.62
2022-12-18T08:52:47.747Z,79.26
2022-12-18T08:55:34.453Z,79.29
2022-12-18T08:58:30.958Z,78.21
2022-12-18T09:01:25.341Z,78.89
2022-12-18T09:04:15.460Z,78.53
2022-12-18T09:07:01.235Z,78.16
2022-12-18T09:09:46.698Z,78.16
2022-12-18T09:12:32.913Z,78.88
2022-12-18T09:15:18.499Z,78.86
2022-12-18T09:18:03.924Z,77.96
2022-12-18T09:20:51.221Z,77.83
2022-12-18T09:23:36.930Z,77.80
2022-12-18T09:26:23.900Z,77.89
2022-12-18T09:29:10.129Z,77.89
2022-12-18T09:31:56.110Z,77.89
2022-12-18T09:34:41.841Z,77.89
2022-12-18T09:37:29.392Z,78.04
2022-12-18T09:40:17.228Z,77.88
2022-12-18T09:43:05.803Z,77.96
2022-12-18T09:46:00.274Z,78.24
2022-12-18T09:48:51.143Z,78.40
2022-12-18T09:51:39.855Z,77.95
2022-12-18T09:54:33.890Z,78.61
2022-12-18T09:57:23.375Z,78.15
2022-12-18T10:00:12.313Z,78.02
2022-12-18T10:03:14.142Z,77.61
2022-12-18T10:06:16.370Z,77.55
2022-12-18T10:09:28.371Z,77.93
2022-12-18T10:12:43.759Z,77.51
2022-12-18T10:16:00.733Z,77.56
2022-12-18T10:19:24.403Z,77.48
2022-12-18T10:26:15.616Z,77.02
2022-12-18T10:29:05.746Z,77.39
2022-12-18T10:31:51.590Z,76.39
2022-12-18T10:34:37.125Z,77.71
2022-12-18T10:37:26.347Z,77.61
2022-12-18T10:40:21.812Z,78.00
2022-12-18T10:43:15.955Z,77.80
2022-12-18T10:46:11.192Z,76.98
2022-12-18T10:48:58.734Z,77.44
2022-12-18T10:51:45.327Z,77.32
2022-12-18T10:54:33.846Z,76.54
2022-12-18T10:57:39.791Z,76.53
2022-12-18T11:00:31.351Z,76.62
2022-12-18T11:03:39.800Z,76.32
2022-12-18T11:06:29.144Z,76.53
2022-12-18T11:09:23.111Z,76.06
2022-12-18T11:12:19.907Z,76.13
2022-12-18T11:15:05.987Z,76.96
2022-12-18T11:17:53.058Z,76.25
2022-12-18T11:20:40.082Z,77.01
2022-12-18T11:23:27.214Z,76.68
2022-12-18T11:26:12.637Z,76.19
2022-12-18T11:29:18.376Z,76.91
2022-12-18T11:32:33.175Z,76.85
2022-12-18T11:35:39.472Z,76.33
2022-12-18T11:38:26.918Z,76.05
2022-12-18T11:41:20.027Z,76.05
2022-12-18T11:44:10.139Z,75.14
2022-12-18T11:47:09.340Z,75.20
2022-12-18T11:50:00.509Z,75.32
2022-12-18T11:52:57.293Z,75.00
2022-12-18T11:56:03.480Z,75.08
2022-12-18T11:59:17.673Z,75.22
2022-12-18T12:02:28.380Z,75.39
2022-12-18T12:05:40.465Z,75.26
2022-12-18T12:08:56.445Z,74.90
2022-12-18T12:12:13.959Z,74.11
2022-12-18T12:15:47.098Z,74.00
2022-12-18T12:18:46.215Z,74.51
2022-12-18T12:21:38.070Z,73.92
2022-12-18T12:24:58.017Z,72.94
2022-12-18T12:28:06.410Z,72.29
2022-12-18T12:31:05.886Z,72.13
2022-12-18T12:34:32.701Z,73.15
2022-12-18T12:37:40.417Z,73.33
2022-12-18T12:43:34.923Z,72.96
2022-12-18T12:46:23.086Z,72.62
2022-12-18T12:49:18.574Z,72.44
2022-12-18T12:52:13.271Z,72.57
2022-12-18T12:55:01.270Z,71.70
2022-12-18T12:58:24.667Z,71.82
2022-12-18T13:01:10.765Z,71.76
2022-12-18T13:04:15.495Z,72.17
2022-12-18T13:07:13.524Z,72.24
2022-12-18T13:10:27.200Z,71.27
2022-12-18T13:13:17.293Z,71.42
2022-12-18T13:16:07.997Z,71.33
2022-12-18T13:19:00.161Z,72.24
2022-12-18T13:21:55.999Z,72.04
2022-12-18T13:24:41.845Z,71.05
2022-12-18T13:27:46.634Z,70.07
2022-12-18T13:30:33.312Z,70.92
2022-12-18T13:33:31.681Z,71.06
2022-12-18T13:36:17.873Z,71.36
2022-12-18T13:39:26.724Z,71.64
2022-12-18T13:42:36.671Z,70.95
2022-12-18T13:45:42.558Z,72.15
2022-12-18T13:48:31.751Z,71.23
2022-12-18T13:51:19.360Z,71.99
2022-12-18T13:54:38.857Z,71.80
2022-12-18T13:57:39.579Z,71.32
2022-12-18T14:00:29.921Z,71.49
2022-12-18T14:03:24.230Z,71.91
2022-12-18T14:06:13.816Z,72.10
2022-12-18T14:09:01.001Z,72.21
2022-12-18T14:11:49.983Z,71.34
2022-12-18T14:14:37.681Z,70.79
2022-12-18T14:17:23.992Z,70.92
2022-12-18T14:20:16.629Z,71.30
2022-12-18T14:23:02.473Z,71.95
2022-12-18T14:25:48.406Z,72.66
2022-12-18T14:28:35.066Z,72.88
2022-12-18T14:31:28.164Z,72.00
2022-12-18T14:34:17.591Z,71.96
2022-12-18T14:37:49.666Z,71.66
2022-12-18T14:41:41.375Z,71.76
2022-12-18T14:44:39.091Z,71.83
2022-12-18T14:47:35.484Z,71.39
2022-12-18T14:50:21.462Z,71.68
2022-12-18T14:53:07.085Z,71.58
2022-12-18T14:55:52.846Z,71.78
2022-12-18T14:58:38.495Z,71.56
2022-12-18T15:01:28.933Z,71.53
2022-12-18T15:04:28.987Z,71.40
2022-12-18T15:07:23.912Z,71.33
2022-12-18T15:10:10.670Z,71.09
2022-12-18T15:12:57.085Z,71.81
2022-12-18T15:15:46.059Z,71.38
2022-12-18T15:18:36.310Z,72.08
2022-12-18T15:21:22.378Z,71.34
2022-12-18T15:24:18.988Z,72.26
2022-12-18T15:27:05.153Z,72.29
2022-12-18T15:30:24.338Z,70.79
2022-12-18T15:33:30.738Z,71.60
2022-12-18T15:36:18.043Z,70.91
2022-12-18T15:39:15.323Z,72.24
2022-12-18T15:42:21.431Z,70.89
2022-12-18T15:45:13.800Z,71.98
2022-12-18T15:47:59.884Z,72.27
2022-12-18T15:50:53.679Z,71.82
2022-12-18T15:53:39.950Z,72.09
2022-12-18T15:56:45.165Z,72.71
2022-12-18T15:59:30.713Z,71.92
2022-12-18T16:02:19.753Z,72.38
2022-12-18T16:05:15.445Z,71.27
2022-12-18T16:08:01.419Z,70.83
2022-12-18T16:10:48.458Z,71.30
2022-12-18T16:13:34.079Z,71.67
2022-12-18T16:16:20.116Z,71.30
2022-12-18T16:19:05.622Z,69.73
2022-12-18T16:21:53.007Z,69.95
2022-12-18T16:24:38.421Z,70.22
2022-12-18T16:27:25.274Z,70.60
2022-12-18T16:30:19.106Z,71.35
2022-12-18T16:33:04.583Z,71.55
2022-12-18T16:35:54.323Z,71.67
2022-12-18T16:38:40.081Z,71.43
2022-12-18T16:41:34.785Z,72.84
2022-12-18T16:44:21.192Z,72.27
2022-12-18T16:47:06.919Z,72.18
2022-12-18T16:49:54.687Z,72.21
2022-12-18T16:52:41.641Z,72.82
2022-12-18T16:55:27.052Z,72.41
2022-12-18T16:58:12.422Z,71.72
2022-12-18T17:00:58.110Z,71.38
2022-12-18T17:03:44.920Z,71.57
2022-12-18T17:06:35.246Z,70.42
2022-12-18T17:09:25.768Z,70.89
2022-12-18T17:12:11.818Z,72.12
2022-12-18T17:15:03.206Z,72.07
2022-12-18T17:17:53.788Z,70.94
2022-12-18T17:20:41.078Z,71.34
2022-12-18T17:23:28.214Z,70.88
2022-12-18T17:26:14.323Z,70.77
2022-12-18T17:29:00.150Z,70.47
2022-12-18T17:31:47.651Z,70.29
2022-12-18T17:34:33.815Z,70.06
2022-12-18T17:37:19.647Z,69.41
2022-12-18T17:40:06.208Z,69.18
2022-12-18T17:42:53.937Z,69.56
2022-12-18T17:45:41.170Z,70.42
2022-12-18T17:48:27.244Z,70.94
2022-12-18T17:51:15.137Z,70.20
2022-12-18T17:54:01.897Z,70.82
2022-12-18T17:56:48.415Z,70.92
2022-12-18T17:59:35.165Z,71.09
2022-12-18T18:02:21.227Z,70.75
2022-12-18T18:05:07.252Z,70.27
2022-12-18T18:07:53.202Z,69.63
2022-12-18T18:10:41.540Z,69.89
2022-12-18T18:13:47.059Z,68.92
2022-12-18T18:16:52.523Z,69.24
2022-12-18T18:19:38.693Z,69.11
2022-12-18T18:22:27.094Z,69.93
2022-12-18T18:25:13.088Z,68.99
2022-12-18T18:27:58.998Z,69.23
2022-12-18T18:30:49.678Z,68.95
2022-12-18T18:33:37.131Z,68.72
2022-12-18T18:36:24.111Z,69.06
2022-12-18T18:39:10.462Z,69.42
2022-12-18T18:41:56.483Z,68.76
2022-12-18T18:44:47.215Z,68.37
2022-12-18T18:47:34.292Z,69.51
2022-12-18T18:50:20.211Z,70.38
2022-12-18T18:53:05.887Z,70.74
2022-12-18T18:56:17.279Z,71.36
2022-12-18T18:58:57.170Z,71.61
2022-12-18T19:01:42.968Z,72.46
2022-12-18T19:04:29.224Z,72.69
2022-12-18T19:07:23.894Z,72.45
2022-12-18T19:10:16.268Z,73.14
2022-12-18T19:13:20.798Z,72.59
2022-12-18T19:16:09.695Z,72.74
2022-12-18T19:19:17.675Z,72.64
2022-12-18T19:22:10.657Z,71.80
2022-12-18T19:25:01.614Z,72.44
2022-12-18T19:27:47.629Z,74.78
2022-12-18T19:30:43.833Z,72.83
2022-12-18T19:33:43.873Z,76.78
2022-12-18T19:36:31.736Z,82.42
2022-12-18T19:39:19.446Z,72.57
2022-12-18T19:42:05.478Z,71.34
2022-12-18T19:44:51.543Z,70.96
2022-12-18T19:47:37.596Z,71.21
2022-12-18T19:50:26.407Z,70.27
2022-12-18T19:53:14.605Z,69.98
2022-12-18T19:56:13.588Z,70.39
2022-12-18T19:58:59.772Z,68.78
2022-12-18T20:01:47.337Z,68.83
2022-12-18T20:04:33.801Z,68.37
2022-12-18T20:07:19.995Z,68.75
2022-12-18T20:10:09.260Z,68.59
2022-12-18T20:12:55.193Z,69.01
2022-12-18T20:15:45.263Z,68.25
2022-12-18T20:18:31.614Z,68.35
2022-12-18T20:21:17.680Z,67.21
2022-12-18T20:24:04.589Z,68.33
2022-12-18T20:26:50.842Z,68.49
2022-12-18T20:29:36.787Z,68.58
2022-12-18T20:32:22.414Z,68.39
2022-12-18T20:35:13.551Z,69.10
2022-12-18T20:38:02.399Z,68.92
2022-12-18T20:40:50.038Z,68.37
2022-12-18T20:43:36.904Z,67.26
2022-12-18T20:46:22.965Z,67.53
2022-12-18T20:49:10.167Z,67.25
2022-12-18T20:52:03.125Z,67.96
2022-12-18T20:54:48.476Z,67.96
2022-12-18T20:57:33.988Z,67.72
2022-12-18T21:00:21.300Z,68.51
2022-12-18T21:03:07.484Z,67.92
2022-12-18T21:05:53.698Z,68.58
2022-12-18T21:08:39.486Z,67.41
2022-12-18T21:11:50.433Z,68.07
2022-12-18T21:14:36.143Z,67.87
2022-12-18T21:17:21.572Z,67.51
2022-12-18T21:20:07.865Z,67.18
2022-12-18T21:22:54.981Z,66.96
2022-12-18T21:25:44.539Z,66.27
2022-12-18T21:28:33.036Z,67.22
2022-12-18T21:31:23.392Z,66.99
2022-12-18T21:34:17.847Z,67.68
2022-12-18T21:37:04.788Z,67.62
2022-12-18T21:39:50.675Z,67.63
2022-12-18T21:43:05.732Z,66.78
2022-12-18T21:45:59.728Z,67.21
2022-12-18T21:48:46.690Z,67.74
2022-12-18T21:51:35.784Z,66.42
2022-12-18T21:54:22.203Z,66.37
2022-12-18T21:57:08.624Z,66.78
2022-12-18T21:59:54.612Z,67.08
2022-12-18T22:02:40.661Z,67.04
2022-12-18T22:05:26.545Z,66.40
2022-12-18T22:08:16.351Z,66.30
2022-12-18T22:11:02.307Z,66.87
2022-12-18T22:13:48.220Z,66.84
2022-12-18T22:16:33.880Z,67.37
2022-12-18T22:19:21.404Z,68.14
2022-12-18T22:22:07.863Z,68.16
2022-12-18T22:24:53.894Z,67.94
2022-12-18T22:27:39.384Z,67.69
2022-12-18T22:30:24.913Z,67.43
2022-12-18T22:33:10.936Z,67.52
2022-12-18T22:35:56.260Z,67.49
2022-12-18T22:38:41.849Z,68.07
2022-12-18T22:41:27.556Z,67.05
2022-12-18T22:44:17.484Z,66.40
2022-12-18T22:47:06.829Z,67.07
2022-12-18T22:49:52.959Z,66.70
2022-12-18T22:52:38.853Z,66.88
2022-12-18T22:55:24.373Z,67.14
2022-12-18T22:58:09.874Z,68.04
2022-12-18T23:00:55.501Z,67.04
2022-12-18T23:03:40.980Z,66.87
2022-12-18T23:06:28.636Z,66.84
2022-12-18T23:09:20.026Z,67.80
2022-12-18T23:12:06.295Z,66.74
2022-12-18T23:14:52.068Z,66.60
2022-12-18T23:17:37.720Z,66.25
2022-12-18T23:20:23.507Z,66.67
2022-12-18T23:23:08.974Z,67.56
2022-12-18T23:26:01.152Z,67.40
2022-12-18T23:28:47.561Z,67.23
2022-12-18T23:31:36.195Z,67.61
2022-12-18T23:34:21.428Z,67.79
2022-12-18T23:37:07.039Z,67.57
2022-12-18T23:39:53.055Z,66.81
2022-12-18T23:42:38.462Z,66.87
2022-12-18T23:45:28.135Z,67.06
2022-12-18T23:48:18.802Z,66.84
2022-12-18T23:51:12.549Z,66.48
2022-12-18T23:54:01.270Z,67.58
2022-12-18T23:56:46.892Z,66.74
2022-12-18T23:59:32.834Z,66.78
